• Join FlightAware (Why Join?)
  • Login
  • US Flag 
10:12PM EDT


 

Airport Tracker/Info


-or-


 

Live Flight TrackerFlight Track Log ✈ NKS332 ✈ 11-May-2013 ✈ KACY - KBOS

Flight Track Log - Related Links

Times and Time Zones

All times are in EDT time to prevent confusion due to time zone crossing. See the NKS332 flight status page for this flight to view local times or setup timezone preferences in your user account.

Time Position Orientation Groundspeed Altitude Reporting Facility
EDT Latitude Longitude Course Direction KTS MPH feet Rate Location/Type
05:00PM 39.4336 -74.4936 46° Northeast 211 243 2,100  Level New York Center
05:01PM 39.4136 -74.4039 106° East 242 278 5,300 3,120 Climbing New York Center
05:02PM 39.4503 -74.2956 66° East 263 303 8,500 3,000 Climbing New York Center
05:03PM 39.4947 -74.1956 60° Northeast 279 321 11,300 2,220 Climbing New York Center
05:04PM 39.5333 -74.0869 65° Northeast 338 389 13,000 840 Climbing New York Center
05:05PM 39.5771 -74.0306 46° Northeast  Level FlightAware Approximate
05:05PM 39.5833 -73.9439 66° East 387 445 13,100  Level New York Center
05:06PM 39.6419 -73.7575 68° East 388 447 15,100 1,920 Climbing Boston Center
05:07PM 39.6894 -73.6261 65° Northeast 388 447 18,100 2,700 Climbing Boston Center
05:08PM 39.7633 -73.5197 48° Northeast 388 447 20,500 2,100 Climbing Boston Center
05:09PM 39.8372 -73.4019 51° Northeast 401 461 22,300 1,200 Climbing Boston Center
05:10PM 39.9300 -73.2706 47° Northeast 428 493 23,000 300 Climbing Boston Center
05:11PM 40.0183 -73.1417 48° Northeast 449 517 23,000 -60 Level Boston Center
05:12PM 40.1047 -73.0125 49° Northeast 462 532 22,900 -60 Descending Boston Center
05:13PM 40.1886 -72.8856 49° Northeast 462 532 22,900  Level Boston Center
05:14PM 40.2597 -72.7636 53° Northeast 468 539 23,000  Climbing Boston Center
05:15PM 40.3414 -72.6333 51° Northeast 468 539 23,000 -60 Level Boston Center
05:16PM 40.4289 -72.5083 47° Northeast 462 532 22,900  Descending Boston Center
05:17PM 40.5039 -72.3772 53° Northeast 457 526 23,000  Climbing Boston Center
05:18PM 40.5892 -72.2542 48° Northeast 457 526 23,000 -60 Level Boston Center
05:19PM 40.6639 -72.1283 52° Northeast 444 511 22,900 -600 Descending Boston Center
05:20PM 40.7617 -72.0153 41° Northeast 424 488 21,900 -1,020 Descending Boston Center
05:21PM 40.8697 -71.9542 23° Northeast 424 488 20,900 -1,020 Descending Boston Center
05:22PM 40.9675 -71.9042 21° North 416 479 19,900 -1,080 Descending Boston Center
05:23PM 41.0794 -71.8317 26° Northeast 406 467 18,800 -1,080 Descending Boston Center
05:24PM 41.1814 -71.7700 24° Northeast 400 460 17,800 -780 Descending Boston Center
05:25PM 41.2831 -71.7081 25° Northeast 393 452 17,100 -780 Descending Boston Center
05:26PM 41.3908 -71.6406 25° Northeast 393 452 16,100 -1,380 Descending Boston Center
05:27PM 41.4967 -71.5725 26° Northeast 393 452 14,400 -1,740 Descending Boston Center
05:29PM 41.6150 -71.4989 25° Northeast 393 452 12,400 -1,440 Descending Boston Center
05:30PM 41.7000 -71.4447 25° Northeast 382 440 11,300 -720 Descending Boston Center
05:31PM 41.7572 -71.3325 56° Northeast 336 387 11,000 -180 Descending Boston Center
05:32PM 41.7917 -71.2456 62° Northeast 307 353 11,000 -240 Level Boston Center
05:33PM 41.8772 -71.2439 North 258 297 10,600 -540 Descending Boston Center
05:34PM 41.9458 -71.2397 North 263 303 10,000 -300 Descending Boston Center
05:35PM 41.9886 -71.1331 62° Northeast 253 291 10,000 -120 Level Boston Center
05:35PM 41.9833 -71.0667 96° East 291 335 9,900 -120 Descending KA90
05:36PM 41.9333 -71.0167 143° Southeast 240 276 9,900  Level KA90
05:37PM 41.8833 -71.0167 180° South 209 241 9,900 120 Level KA90
05:38PM 41.8747 -71.0322 233° Southwest 131 151 10,100 60 Climbing Boston Center
05:38PM 41.9167 -71.0667 329° Northwest 246 283 10,000 -180 Descending KA90
05:39PM 41.9833 -71.0667 360° North 268 308 9,900 -60 Descending KA90
05:40PM 42.0333 -70.9833 51° Northeast 298 343 9,900  Level KA90
05:41PM 41.9833 -70.9333 143° Southeast 234 269 9,900 -300 Level KA90
05:42PM 41.9333 -70.8667 135° Southeast 274 315 9,400 -600 Descending KA90
05:43PM 41.9450 -70.8350 64° Northeast 238 274 9,100 -960 Descending Boston Center
05:44PM 41.9706 -70.7311 72° East 246 283 8,100 -540 Descending Boston Center
05:45PM 42.0167 -70.5667 69° East 293 337 7,700 -660 Descending KA90
05:46PM 42.0833 -70.5833 349° North 257 296 6,400 -1,320 Descending KA90
05:47PM 42.1500 -70.6000 349° North 245 282 5,200 -780 Descending KA90
05:48PM 42.2167 -70.6333 340° North 245 282 4,900 -180 Descending KA90
05:49PM 42.2833 -70.6333 360° North 259 298 4,900  Level KA90
05:50PM 42.3167 -70.5500 62° Northeast 257 296 5,000  Climbing KA90
05:51PM 42.3333 -70.4667 75° East 251 289 4,900 -60 Descending KA90
05:52PM 42.3500 -70.3833 75° East 247 284 4,900  Level KA90
05:53PM 42.3833 -70.3167 56° Northeast 246 283 4,900  Level KA90